UUWWUGSB

Guest
Details From UUWW - Vnukovo
To UGSB - Batumi
Flight Number -
Tags Generated
Created
Modified
Stats Distance 859 nm / 1,590 km
Max Altitude 0 ft / 0 m
Waypoints 5
Social Downloads 12
Likes 0
Share VATSIM

Download

Looking for another format? Having issues loading an existing format? Contact us
Advertisement - Login to hide

Notes

Generated

Route

UUWW NIPOL SUDIR ORAMI UGSB

ID Type Via Altitude Latitude Longitude Leg Dist Tot Dist Heading (true) Name
O UUWW APT - 0 ft / 0 m 55.58804˚ 37.24603˚ - 0 nm - -
NIPOL FIX - 0 ft / 0 m 50.75333˚ 38.91667˚ 296 nm 296 nm 168° / 169° -
SUDIR FIX - 0 ft / 0 m 46.35000˚ 40.46667˚ 271 nm 568 nm 166° / 167° -
ORAMI FIX - 0 ft / 0 m 41.76667˚ 41.40278˚ 278 nm 846 nm 171° / 172° -
O UGSB APT - 0 ft / 0 m 41.61622˚ 41.59016˚ 12 nm 858 nm 137° / 137° -

Altitude Profile

Advertisement - Login to hide

Weather


0- 5 10 15 20 25 30 35+ Temperature / ° C

Clouds and Precipitation
Forecast for 2017-12-18 06:00 UTC. Updated 35 minutes ago

Ground ~20,000 ft ~40,000 ft Winds

UUWW

Details ICAO UUWW (VKO)
Name VNUKOVO
Region Russia
Timezone Europe/Moscow (UTC+3.0)
Stats Elevation 685 ft / 209 m (AMSL)
Location 55.596061° 37.267664°
Runways 2
Magnetic Variation 10.961° E

METAR

UUWW 180130Z 01002MPS 9999 OVC014 M00/M03 Q1021 R24/190060 NOSIG

Decode

TAF

TAF UUWW 172256Z 1800/1824 34004MPS 6000 OVC011 TX00/1812Z TNM00/1801Z TEMPO 1800/1804 2000 BR BKN006 FM180400 05008MPS 3100 -SN BR OVC005 TEMPO 1804/1809 1500 SHSN -FZRA OVC003 BKN012CB TEMPO 1809/1824 05015MPS 0700 +SHSN BKN002 BKN010CB PROB40 TEMPO 1809/1821 -FZDZ OVC002

Decode

Departure Runways

ID Width Length Bearing (true) Bearing (mag) Surface Threshold Offset Overrun Length
02 197 ft / 60 m 9,993 ft / 3,046 m 23.36° 12.40° Asphalt 0 ft / 0 m 140 ft / 43 m
06 197 ft / 60 m 9,785 ft / 2,982 m 68.26° 57.30° Asphalt 0 ft / 0 m 250 ft / 76 m
20 197 ft / 60 m 9,993 ft / 3,046 m 203.37° 192.41° Asphalt 0 ft / 0 m 150 ft / 46 m
24 197 ft / 60 m 9,785 ft / 2,982 m 248.29° 237.33° Asphalt 0 ft / 0 m 260 ft / 79 m

UGSB

Details ICAO UGSB (BUS)
Name BATUMI
Region Georgia
Timezone Asia/Tbilisi (UTC+4.0)
Stats Elevation 105 ft / 32 m (AMSL)
Location 41.609660° 41.600318°
Runways 1
Magnetic Variation 6.548° E

METAR

UGSB 180130Z AUTO 13020KT CAVOK 14/M00 Q1018 R13/70D NOSIG

Decode

TAF

Not found

Destination Runways

ID Width Length Bearing (true) Bearing (mag) Surface Threshold Offset Overrun Length
13 150 ft / 46 m 7,321 ft / 2,232 m 130.81° 124.26° Asphalt 0 ft / 0 m 690 ft / 210 m
31 150 ft / 46 m 7,321 ft / 2,232 m 310.82° 304.27° Asphalt 0 ft / 0 m 0 ft / 0 m

Approach Navaids

Runway Type Ident Frequency Range Bearing (true) Bearing (mag) Slope Elevation
13 Localiser ILU 110.30 MHz 18 nm / 33 km 130.94° 124.39° - 121 ft / 37 m (AMSL)
13 Glidescope ILU 110.30 MHz 10 nm / 19 km 130.82° 124.27° 2.50° 127 ft / 39 m (AMSL)